TAM8520 SUMU-SBGR
Flight info
| Callsign | TAM8520 |
|---|---|
| Flight time | 2h 15m |
| Altitude | 39000 |
| Route | MOLBI UM540 AKPOD UZ131 NIGBI UZ121 BUXUK |
| Aircraft | B789/H-SDE1E2E3FGHIJ2J3J4J5M1RWXY/LB1D1 |
Departure
| Time | 2026-04-21 17:38 |
|---|---|
| Airport | Carrasco General Cesáreo L. Berisso International Airport (SUMU) |
Arrival
| Time | 2026-04-21 19:53 |
|---|---|
| Airport | São Paulo/Guarulhos–Governor André Franco Montoro International Airport (SBGR) |
| Time | Latitude | Longitude | Altitude | Speed | Heading |
|---|---|---|---|---|---|
| 2026-04-21 17:27 | -34.83656 | -56.01865 | 94 ft | 0 kts | 114° |
| 2026-04-21 17:28 | -34.83655 | -56.01866 | 94 ft | 3 kts | 114° |
| 2026-04-21 17:28 | -34.83643 | -56.01895 | 94 ft | 4 kts | 119° |
| 2026-04-21 17:29 | -34.83630 | -56.01922 | 94 ft | 4 kts | 125° |
| 2026-04-21 17:29 | -34.83614 | -56.01947 | 93 ft | 3 kts | 116° |
| 2026-04-21 17:29 | -34.83615 | -56.01962 | 94 ft | 1 kts | 56° |
| 2026-04-21 17:31 | -34.83610 | -56.01953 | 94 ft | 2 kts | 56° |
| 2026-04-21 17:31 | -34.83599 | -56.01935 | 96 ft | 3 kts | 52° |
| 2026-04-21 17:32 | -34.83590 | -56.01921 | 95 ft | 4 kts | 52° |
| 2026-04-21 17:32 | -34.83556 | -56.01865 | 97 ft | 9 kts | 53° |
| 2026-04-21 17:32 | -34.83518 | -56.01802 | 99 ft | 9 kts | 53° |
| 2026-04-21 17:32 | -34.83484 | -56.01768 | 101 ft | 4 kts | 21° |
| 2026-04-21 17:33 | -34.83459 | -56.01768 | 102 ft | 6 kts | 353° |
| 2026-04-21 17:33 | -34.83404 | -56.01803 | 104 ft | 12 kts | 327° |
| 2026-04-21 17:33 | -34.83343 | -56.01852 | 102 ft | 7 kts | 335° |
| 2026-04-21 17:33 | -34.83311 | -56.01856 | 103 ft | 4 kts | 9° |
| 2026-04-21 17:34 | -34.83293 | -56.01843 | 103 ft | 3 kts | 43° |
| 2026-04-21 17:34 | -34.83257 | -56.01786 | 104 ft | 14 kts | 55° |
| 2026-04-21 17:34 | -34.83174 | -56.01647 | 107 ft | 26 kts | 53° |
| 2026-04-21 17:34 | -34.83069 | -56.01479 | 110 ft | 23 kts | 53° |
| 2026-04-21 17:35 | -34.82984 | -56.01340 | 111 ft | 18 kts | 53° |
| 2026-04-21 17:35 | -34.82923 | -56.01241 | 110 ft | 15 kts | 53° |
| 2026-04-21 17:35 | -34.82867 | -56.01158 | 115 ft | 8 kts | 39° |
| 2026-04-21 17:35 | -34.82839 | -56.01145 | 113 ft | 3 kts | 9° |
| 2026-04-21 17:36 | -34.82810 | -56.01140 | 113 ft | 7 kts | 7° |
| 2026-04-21 17:36 | -34.82739 | -56.01156 | 113 ft | 13 kts | 335° |
| 2026-04-21 17:36 | -34.82705 | -56.01200 | 113 ft | 2 kts | 288° |
| 2026-04-21 17:36 | -34.82714 | -56.01239 | 113 ft | 11 kts | 244° |
| 2026-04-21 17:37 | -34.82756 | -56.01310 | 113 ft | 0 kts | 233° |
| 2026-04-21 17:37 | -34.82756 | -56.01311 | 113 ft | 2 kts | 233° |
| 2026-04-21 17:37 | -34.82806 | -56.01391 | 128 ft | 43 kts | 233° |
| 2026-04-21 17:37 | -34.83382 | -56.02325 | 94 ft | 159 kts | 234° |
| 2026-04-21 17:38 | -34.84161 | -56.03598 | 395 ft | 198 kts | 228° |
| 2026-04-21 17:38 | -34.84910 | -56.04735 | 1983 ft | 169 kts | 232° |
| 2026-04-21 17:38 | -34.85724 | -56.06010 | 2579 ft | 207 kts | 235° |
| 2026-04-21 17:38 | -34.86676 | -56.07496 | 3288 ft | 236 kts | 239° |
| 2026-04-21 17:39 | -34.87044 | -56.09487 | 3892 ft | 257 kts | 279° |
| 2026-04-21 17:39 | -34.86679 | -56.10886 | 4459 ft | 265 kts | 301° |
| 2026-04-21 17:39 | -34.85522 | -56.12524 | 6010 ft | 255 kts | 326° |
| 2026-04-21 17:39 | -34.83858 | -56.13285 | 7185 ft | 261 kts | 354° |
| 2026-04-21 17:40 | -34.82054 | -56.12945 | 8357 ft | 270 kts | 22° |
| 2026-04-21 17:40 | -34.80548 | -56.11523 | 9496 ft | 282 kts | 44° |
| 2026-04-21 17:40 | -34.79195 | -56.09729 | 10495 ft | 296 kts | 44° |
| 2026-04-21 17:40 | -34.77767 | -56.07773 | 11086 ft | 323 kts | 45° |
| 2026-04-21 17:41 | -34.76202 | -56.05653 | 11636 ft | 350 kts | 45° |
| 2026-04-21 17:41 | -34.74570 | -56.03471 | 12648 ft | 354 kts | 44° |
| 2026-04-21 17:41 | -34.72895 | -56.01233 | 13651 ft | 361 kts | 44° |
| 2026-04-21 17:41 | -34.71184 | -55.98944 | 14557 ft | 367 kts | 44° |
| 2026-04-21 17:42 | -34.69456 | -55.96629 | 15439 ft | 374 kts | 44° |
| 2026-04-21 17:42 | -34.67690 | -55.94269 | 16298 ft | 380 kts | 44° |
| 2026-04-21 17:42 | -34.65896 | -55.91874 | 17176 ft | 386 kts | 44° |
| 2026-04-21 17:42 | -34.64090 | -55.89464 | 18005 ft | 393 kts | 43° |
| 2026-04-21 17:43 | -34.62232 | -55.86987 | 18775 ft | 399 kts | 43° |
| 2026-04-21 17:43 | -34.60350 | -55.84478 | 19503 ft | 405 kts | 43° |
| 2026-04-21 17:43 | -34.58438 | -55.81933 | 20218 ft | 411 kts | 43° |
| 2026-04-21 17:43 | -34.56497 | -55.79350 | 20914 ft | 417 kts | 43° |
| 2026-04-21 17:44 | -34.54527 | -55.76731 | 21600 ft | 422 kts | 43° |
| 2026-04-21 17:44 | -34.52538 | -55.74087 | 22277 ft | 428 kts | 42° |
| 2026-04-21 17:44 | -34.50515 | -55.71401 | 22925 ft | 434 kts | 42° |
| 2026-04-21 17:44 | -34.48458 | -55.68672 | 23562 ft | 439 kts | 42° |
| 2026-04-21 17:45 | -34.46389 | -55.65930 | 24119 ft | 443 kts | 42° |
| 2026-04-21 17:45 | -34.44298 | -55.63158 | 24682 ft | 447 kts | 42° |
| 2026-04-21 17:45 | -34.42553 | -55.60849 | 25140 ft | 450 kts | 42° |
| 2026-04-21 17:45 | -34.40459 | -55.58080 | 25669 ft | 453 kts | 42° |
| 2026-04-21 17:46 | -34.38320 | -55.55254 | 26202 ft | 456 kts | 42° |
| 2026-04-21 17:46 | -34.36166 | -55.52408 | 26796 ft | 460 kts | 42° |
| 2026-04-21 17:46 | -34.33928 | -55.49637 | 27334 ft | 458 kts | 35° |
| 2026-04-21 17:46 | -34.31510 | -55.47093 | 27787 ft | 462 kts | 35° |
| 2026-04-21 17:47 | -34.29085 | -55.44515 | 28311 ft | 465 kts | 36° |
| 2026-04-21 17:47 | -34.26646 | -55.41913 | 28778 ft | 469 kts | 36° |
| 2026-04-21 17:47 | -34.24183 | -55.39299 | 29255 ft | 472 kts | 35° |
| 2026-04-21 17:47 | -34.21709 | -55.36680 | 29726 ft | 476 kts | 35° |
| 2026-04-21 17:48 | -34.19209 | -55.34034 | 30163 ft | 479 kts | 35° |
| 2026-04-21 17:48 | -34.16692 | -55.31366 | 30508 ft | 483 kts | 35° |
| 2026-04-21 17:48 | -34.14158 | -55.28685 | 30818 ft | 488 kts | 35° |
| 2026-04-21 17:48 | -34.11591 | -55.25973 | 31119 ft | 492 kts | 35° |
| 2026-04-21 17:49 | -34.09000 | -55.23238 | 31404 ft | 497 kts | 34° |
| 2026-04-21 17:49 | -34.06395 | -55.20489 | 31710 ft | 501 kts | 34° |
| 2026-04-21 17:49 | -34.03759 | -55.17709 | 31985 ft | 505 kts | 34° |
| 2026-04-21 17:49 | -34.01126 | -55.14936 | 32278 ft | 509 kts | 34° |
| 2026-04-21 17:50 | -33.98453 | -55.12123 | 32551 ft | 513 kts | 34° |
| 2026-04-21 17:50 | -33.95749 | -55.09280 | 32788 ft | 518 kts | 34° |
| 2026-04-21 17:50 | -33.93024 | -55.06416 | 33038 ft | 521 kts | 34° |
| 2026-04-21 17:50 | -33.90286 | -55.03542 | 33300 ft | 525 kts | 34° |
| 2026-04-21 17:51 | -33.87518 | -55.00640 | 33560 ft | 529 kts | 33° |
| 2026-04-21 17:51 | -33.84729 | -54.97718 | 33799 ft | 533 kts | 33° |
| 2026-04-21 17:51 | -33.82134 | -54.95001 | 34013 ft | 536 kts | 33° |
| 2026-04-21 17:51 | -33.79691 | -54.92444 | 34198 ft | 539 kts | 33° |
| 2026-04-21 17:52 | -33.77354 | -54.90002 | 34357 ft | 542 kts | 33° |
| 2026-04-21 17:52 | -33.75012 | -54.87555 | 34606 ft | 542 kts | 33° |
| 2026-04-21 17:52 | -33.72710 | -54.85150 | 34874 ft | 542 kts | 33° |
| 2026-04-21 17:52 | -33.70418 | -54.82760 | 35099 ft | 543 kts | 33° |
| 2026-04-21 17:53 | -33.68053 | -54.80297 | 35335 ft | 544 kts | 33° |
| 2026-04-21 17:53 | -33.65605 | -54.77748 | 35601 ft | 544 kts | 33° |
| 2026-04-21 17:53 | -33.63043 | -54.75081 | 35872 ft | 544 kts | 33° |
| 2026-04-21 17:53 | -33.60576 | -54.72516 | 36121 ft | 545 kts | 33° |
| 2026-04-21 17:54 | -33.58054 | -54.69896 | 36382 ft | 545 kts | 33° |
| 2026-04-21 17:54 | -33.55747 | -54.67502 | 36617 ft | 545 kts | 33° |
| 2026-04-21 17:54 | -33.53325 | -54.64990 | 36880 ft | 545 kts | 33° |
| 2026-04-21 17:54 | -33.50966 | -54.62545 | 37112 ft | 545 kts | 33° |
| 2026-04-21 17:55 | -33.48495 | -54.59986 | 37350 ft | 545 kts | 33° |
| 2026-04-21 17:55 | -33.45977 | -54.57380 | 37613 ft | 545 kts | 33° |
| 2026-04-21 17:55 | -33.43842 | -54.55172 | 37821 ft | 546 kts | 33° |
| 2026-04-21 17:55 | -33.41265 | -54.52510 | 38069 ft | 546 kts | 32° |
| 2026-04-21 17:56 | -33.38789 | -54.49953 | 38336 ft | 546 kts | 32° |
| 2026-04-21 17:56 | -33.36423 | -54.47511 | 38578 ft | 545 kts | 32° |
| 2026-04-21 17:56 | -33.34103 | -54.45120 | 38794 ft | 545 kts | 32° |
| 2026-04-21 17:56 | -33.31538 | -54.42477 | 39032 ft | 544 kts | 32° |
| 2026-04-21 17:57 | -33.26786 | -54.37592 | 39067 ft | 549 kts | 33° |
| 2026-04-21 17:57 | -33.21724 | -54.32381 | 39059 ft | 544 kts | 32° |
| 2026-04-21 17:58 | -33.16725 | -54.27261 | 39056 ft | 542 kts | 32° |
| 2026-04-21 17:58 | -33.12054 | -54.22476 | 39047 ft | 543 kts | 32° |
| 2026-04-21 17:59 | -33.07285 | -54.17596 | 39053 ft | 543 kts | 32° |
| 2026-04-21 17:59 | -33.02247 | -54.12456 | 39050 ft | 543 kts | 32° |
| 2026-04-21 18:00 | -32.97707 | -54.07823 | 39057 ft | 542 kts | 32° |
| 2026-04-21 18:00 | -32.92771 | -54.02799 | 39052 ft | 543 kts | 32° |
| 2026-04-21 18:01 | -32.88064 | -53.98013 | 39067 ft | 542 kts | 32° |
| 2026-04-21 18:01 | -32.83375 | -53.93254 | 39060 ft | 543 kts | 32° |
| 2026-04-21 18:02 | -32.78662 | -53.88476 | 39059 ft | 543 kts | 32° |
| 2026-04-21 18:02 | -32.73653 | -53.83405 | 39060 ft | 541 kts | 32° |
| 2026-04-21 18:03 | -32.68652 | -53.78353 | 39060 ft | 542 kts | 32° |
| 2026-04-21 18:03 | -32.63766 | -53.73421 | 39055 ft | 542 kts | 32° |
| 2026-04-21 18:04 | -32.58921 | -53.68540 | 39055 ft | 542 kts | 32° |
| 2026-04-21 18:04 | -32.53823 | -53.63411 | 39056 ft | 542 kts | 32° |
| 2026-04-21 18:05 | -32.48761 | -53.58325 | 39052 ft | 542 kts | 32° |
| 2026-04-21 18:05 | -32.46245 | -53.56051 | 39068 ft | 531 kts | 22° |
| 2026-04-21 18:05 | -32.43944 | -53.54484 | 39082 ft | 525 kts | 18° |
| 2026-04-21 18:06 | -32.38335 | -53.50993 | 39060 ft | 526 kts | 18° |
| 2026-04-21 18:06 | -32.32813 | -53.47564 | 39067 ft | 527 kts | 19° |
| 2026-04-21 18:07 | -32.27696 | -53.44371 | 39064 ft | 527 kts | 19° |
| 2026-04-21 18:07 | -32.22218 | -53.40979 | 39058 ft | 527 kts | 19° |
| 2026-04-21 18:08 | -32.18099 | -53.38422 | 39053 ft | 527 kts | 19° |
| 2026-04-21 18:08 | -32.17726 | -53.38190 | 39049 ft | 526 kts | 19° |
| 2026-04-21 18:09 | -32.11236 | -53.34170 | 39062 ft | 526 kts | 19° |
| 2026-04-21 18:09 | -32.04750 | -53.30162 | 39053 ft | 527 kts | 19° |
| 2026-04-21 18:10 | -31.98255 | -53.26150 | 39049 ft | 526 kts | 19° |
| 2026-04-21 18:10 | -31.91793 | -53.22170 | 39049 ft | 527 kts | 19° |
| 2026-04-21 18:11 | -31.85282 | -53.18162 | 39057 ft | 527 kts | 19° |
| 2026-04-21 18:11 | -31.78776 | -53.14166 | 39055 ft | 527 kts | 19° |
| 2026-04-21 18:12 | -31.72290 | -53.10188 | 39058 ft | 526 kts | 19° |
| 2026-04-21 18:12 | -31.65790 | -53.06208 | 39055 ft | 527 kts | 19° |
| 2026-04-21 18:13 | -31.59270 | -53.02222 | 39052 ft | 527 kts | 19° |
| 2026-04-21 18:13 | -31.52761 | -52.98248 | 39052 ft | 528 kts | 19° |
| 2026-04-21 18:14 | -31.43036 | -52.92323 | 39055 ft | 527 kts | 19° |
| 2026-04-21 18:15 | -31.36521 | -52.88363 | 39053 ft | 527 kts | 19° |
| 2026-04-21 18:15 | -31.30012 | -52.84410 | 39058 ft | 528 kts | 19° |
| 2026-04-21 18:16 | -31.23483 | -52.80447 | 39051 ft | 528 kts | 19° |
| 2026-04-21 18:16 | -31.16944 | -52.76486 | 39051 ft | 528 kts | 19° |
| 2026-04-21 18:17 | -31.10448 | -52.72555 | 39059 ft | 529 kts | 19° |
| 2026-04-21 18:17 | -31.03909 | -52.68606 | 39060 ft | 530 kts | 19° |
| 2026-04-21 18:18 | -30.97362 | -52.64657 | 39052 ft | 529 kts | 19° |
| 2026-04-21 18:18 | -30.90821 | -52.60719 | 39054 ft | 530 kts | 19° |
| 2026-04-21 18:19 | -30.84253 | -52.56770 | 39057 ft | 531 kts | 19° |
| 2026-04-21 18:19 | -30.77671 | -52.52818 | 39056 ft | 531 kts | 19° |
| 2026-04-21 18:20 | -30.71105 | -52.48883 | 39054 ft | 531 kts | 19° |
| 2026-04-21 18:20 | -30.64557 | -52.44964 | 39052 ft | 532 kts | 19° |
| 2026-04-21 18:21 | -30.57970 | -52.41024 | 39050 ft | 532 kts | 19° |
| 2026-04-21 18:21 | -30.51378 | -52.37089 | 39048 ft | 532 kts | 19° |
| 2026-04-21 18:22 | -30.44809 | -52.33178 | 39050 ft | 533 kts | 19° |
| 2026-04-21 18:22 | -30.38211 | -52.29256 | 39042 ft | 533 kts | 19° |
| 2026-04-21 18:23 | -30.31474 | -52.25789 | 39051 ft | 528 kts | 15° |
| 2026-04-21 18:23 | -30.24739 | -52.22377 | 39042 ft | 529 kts | 15° |
| 2026-04-21 18:24 | -30.18040 | -52.19018 | 39042 ft | 529 kts | 15° |
| 2026-04-21 18:24 | -30.11277 | -52.15612 | 39037 ft | 530 kts | 15° |
| 2026-04-21 18:25 | -30.04507 | -52.12211 | 39038 ft | 531 kts | 15° |
| 2026-04-21 18:25 | -29.97721 | -52.08806 | 39038 ft | 531 kts | 15° |
| 2026-04-21 18:26 | -29.92699 | -52.06294 | 39039 ft | 531 kts | 15° |
| 2026-04-21 18:26 | -29.85904 | -52.02897 | 39037 ft | 532 kts | 15° |
| 2026-04-21 18:27 | -29.79114 | -51.99507 | 39037 ft | 532 kts | 15° |
| 2026-04-21 18:27 | -29.72301 | -51.96112 | 39037 ft | 533 kts | 15° |
| 2026-04-21 18:28 | -29.65495 | -51.92723 | 39038 ft | 533 kts | 15° |
| 2026-04-21 18:28 | -29.58672 | -51.89333 | 39043 ft | 533 kts | 15° |
| 2026-04-21 18:29 | -29.51900 | -51.85973 | 39052 ft | 533 kts | 15° |
| 2026-04-21 18:29 | -29.45089 | -51.82598 | 39045 ft | 534 kts | 15° |
| 2026-04-21 18:30 | -29.38263 | -51.79220 | 39044 ft | 534 kts | 15° |
| 2026-04-21 18:30 | -29.31425 | -51.75842 | 39039 ft | 533 kts | 15° |
| 2026-04-21 18:31 | -29.24862 | -51.71841 | 39057 ft | 546 kts | 26° |
| 2026-04-21 18:31 | -29.18493 | -51.67012 | 39047 ft | 549 kts | 27° |
| 2026-04-21 18:32 | -29.12105 | -51.62194 | 39049 ft | 548 kts | 26° |
| 2026-04-21 18:32 | -29.05726 | -51.57390 | 39044 ft | 549 kts | 27° |
| 2026-04-21 18:33 | -28.99382 | -51.52616 | 39039 ft | 549 kts | 27° |
| 2026-04-21 18:33 | -28.93003 | -51.47830 | 39041 ft | 548 kts | 27° |
| 2026-04-21 18:34 | -28.86633 | -51.43052 | 39047 ft | 549 kts | 27° |
| 2026-04-21 18:34 | -28.80244 | -51.38271 | 39037 ft | 549 kts | 27° |
| 2026-04-21 18:35 | -28.74938 | -51.34302 | 39036 ft | 549 kts | 27° |
| 2026-04-21 18:35 | -28.67509 | -51.28759 | 39043 ft | 549 kts | 27° |
| 2026-04-21 18:36 | -28.61594 | -51.24349 | 39053 ft | 549 kts | 27° |
| 2026-04-21 18:36 | -28.55193 | -51.19586 | 39051 ft | 549 kts | 27° |
| 2026-04-21 18:37 | -28.48788 | -51.14825 | 39046 ft | 549 kts | 27° |
| 2026-04-21 18:37 | -28.42400 | -51.10085 | 39050 ft | 548 kts | 27° |
| 2026-04-21 18:38 | -28.36002 | -51.05345 | 39070 ft | 549 kts | 27° |
| 2026-04-21 18:38 | -28.29638 | -51.00635 | 39067 ft | 549 kts | 27° |
| 2026-04-21 18:39 | -28.23224 | -50.95897 | 39069 ft | 549 kts | 27° |
| 2026-04-21 18:39 | -28.16809 | -50.91165 | 39062 ft | 549 kts | 27° |
| 2026-04-21 18:40 | -28.10401 | -50.86443 | 39074 ft | 548 kts | 27° |
| 2026-04-21 18:40 | -28.05081 | -50.82529 | 39073 ft | 549 kts | 28° |
| 2026-04-21 18:41 | -27.97858 | -50.76610 | 39084 ft | 551 kts | 31° |
| 2026-04-21 18:41 | -27.91649 | -50.71520 | 39080 ft | 550 kts | 31° |
| 2026-04-21 18:42 | -27.85464 | -50.66426 | 39083 ft | 550 kts | 31° |
| 2026-04-21 18:42 | -27.79259 | -50.61348 | 39084 ft | 550 kts | 31° |
| 2026-04-21 18:43 | -27.73062 | -50.56265 | 39085 ft | 550 kts | 31° |
| 2026-04-21 18:43 | -27.66864 | -50.51201 | 39094 ft | 550 kts | 31° |
| 2026-04-21 18:44 | -27.60695 | -50.46159 | 39088 ft | 549 kts | 31° |
| 2026-04-21 18:44 | -27.54498 | -50.41107 | 39093 ft | 549 kts | 31° |
| 2026-04-21 18:45 | -27.48308 | -50.36066 | 39100 ft | 548 kts | 31° |
| 2026-04-21 18:45 | -27.42117 | -50.31033 | 39102 ft | 548 kts | 31° |
| 2026-04-21 18:46 | -27.35930 | -50.26011 | 39111 ft | 547 kts | 31° |
| 2026-04-21 18:46 | -27.30270 | -50.21422 | 39106 ft | 547 kts | 31° |
| 2026-04-21 18:47 | -27.24095 | -50.16424 | 39102 ft | 547 kts | 31° |
| 2026-04-21 18:47 | -27.17911 | -50.11424 | 39106 ft | 547 kts | 32° |
| 2026-04-21 18:48 | -27.11737 | -50.06440 | 39099 ft | 546 kts | 32° |
| 2026-04-21 18:48 | -27.05543 | -50.01446 | 39104 ft | 547 kts | 32° |
| 2026-04-21 18:49 | -26.99371 | -49.96477 | 39101 ft | 546 kts | 32° |
| 2026-04-21 18:49 | -26.94228 | -49.92342 | 39103 ft | 546 kts | 32° |
| 2026-04-21 18:50 | -26.87058 | -49.86585 | 39111 ft | 546 kts | 32° |
| 2026-04-21 18:50 | -26.83960 | -49.84101 | 39380 ft | 545 kts | 32° |
| 2026-04-21 18:50 | -26.80888 | -49.81638 | 39713 ft | 542 kts | 32° |
| 2026-04-21 18:50 | -26.77831 | -49.79189 | 40032 ft | 540 kts | 32° |
| 2026-04-21 18:51 | -26.74788 | -49.76754 | 40338 ft | 538 kts | 32° |
| 2026-04-21 18:51 | -26.71746 | -49.74321 | 40667 ft | 536 kts | 32° |
| 2026-04-21 18:51 | -26.68706 | -49.71891 | 40970 ft | 534 kts | 32° |
| 2026-04-21 18:51 | -26.65685 | -49.69478 | 41086 ft | 536 kts | 32° |
| 2026-04-21 18:52 | -26.62641 | -49.67050 | 41090 ft | 536 kts | 32° |
| 2026-04-21 18:52 | -26.56643 | -49.62263 | 41091 ft | 531 kts | 32° |
| 2026-04-21 18:53 | -26.50622 | -49.57471 | 41097 ft | 529 kts | 32° |
| 2026-04-21 18:53 | -26.44619 | -49.52695 | 41091 ft | 530 kts | 32° |
| 2026-04-21 18:54 | -26.38607 | -49.47920 | 41092 ft | 530 kts | 32° |
| 2026-04-21 18:54 | -26.32589 | -49.43146 | 41103 ft | 530 kts | 32° |
| 2026-04-21 18:55 | -26.27595 | -49.39188 | 41101 ft | 530 kts | 32° |
| 2026-04-21 18:55 | -26.20587 | -49.33643 | 41100 ft | 531 kts | 32° |
| 2026-04-21 18:56 | -26.14566 | -49.28885 | 41098 ft | 531 kts | 32° |
| 2026-04-21 18:56 | -26.08969 | -49.24748 | 41113 ft | 527 kts | 27° |
| 2026-04-21 18:57 | -26.02656 | -49.20546 | 41110 ft | 529 kts | 28° |
| 2026-04-21 18:57 | -25.96361 | -49.16325 | 41107 ft | 528 kts | 27° |
| 2026-04-21 18:58 | -25.90167 | -49.12199 | 41106 ft | 528 kts | 28° |
| 2026-04-21 18:58 | -25.83982 | -49.08071 | 41118 ft | 528 kts | 28° |
| 2026-04-21 18:59 | -25.77667 | -49.03870 | 41133 ft | 529 kts | 28° |
| 2026-04-21 18:59 | -25.71381 | -48.99688 | 41141 ft | 530 kts | 28° |
| 2026-04-21 19:00 | -25.65059 | -48.95495 | 41142 ft | 530 kts | 28° |
| 2026-04-21 19:00 | -25.58726 | -48.91296 | 41106 ft | 530 kts | 28° |
| 2026-04-21 19:01 | -25.52413 | -48.87116 | 41100 ft | 530 kts | 28° |
| 2026-04-21 19:01 | -25.46043 | -48.83000 | 41124 ft | 529 kts | 25° |
| 2026-04-21 19:02 | -25.39579 | -48.79039 | 41105 ft | 531 kts | 26° |
| 2026-04-21 19:02 | -25.33153 | -48.75132 | 41098 ft | 529 kts | 25° |
| 2026-04-21 19:03 | -25.26705 | -48.71217 | 41095 ft | 529 kts | 26° |
| 2026-04-21 19:03 | -25.20252 | -48.67308 | 41098 ft | 528 kts | 25° |
| 2026-04-21 19:04 | -25.13800 | -48.63439 | 41093 ft | 527 kts | 26° |
| 2026-04-21 19:04 | -25.07346 | -48.59546 | 41094 ft | 527 kts | 26° |
| 2026-04-21 19:05 | -25.00893 | -48.55678 | 41087 ft | 528 kts | 26° |
| 2026-04-21 19:05 | -24.94435 | -48.51778 | 41086 ft | 529 kts | 26° |
| 2026-04-21 19:06 | -24.87996 | -48.47879 | 41082 ft | 528 kts | 26° |
| 2026-04-21 19:06 | -24.82057 | -48.44298 | 41096 ft | 528 kts | 26° |
| 2026-04-21 19:07 | -24.76293 | -48.40818 | 41087 ft | 528 kts | 26° |
| 2026-04-21 19:07 | -24.71890 | -48.38167 | 41090 ft | 528 kts | 26° |
| 2026-04-21 19:08 | -24.65368 | -48.34241 | 41095 ft | 529 kts | 26° |
| 2026-04-21 19:08 | -24.59757 | -48.30867 | 41093 ft | 527 kts | 26° |
| 2026-04-21 19:09 | -24.54235 | -48.27552 | 41084 ft | 527 kts | 26° |
| 2026-04-21 19:09 | -24.49700 | -48.24829 | 41091 ft | 527 kts | 26° |
| 2026-04-21 19:10 | -24.44083 | -48.21462 | 41086 ft | 527 kts | 26° |
| 2026-04-21 19:10 | -24.37853 | -48.17731 | 41088 ft | 527 kts | 26° |
| 2026-04-21 19:11 | -24.32210 | -48.14360 | 41082 ft | 527 kts | 26° |
| 2026-04-21 19:11 | -24.27883 | -48.11823 | 41083 ft | 527 kts | 26° |
| 2026-04-21 19:12 | -24.22481 | -48.08642 | 41081 ft | 527 kts | 26° |
| 2026-04-21 19:12 | -24.17206 | -48.05523 | 41082 ft | 526 kts | 26° |
| 2026-04-21 19:13 | -24.11806 | -48.02357 | 41081 ft | 527 kts | 26° |
| 2026-04-21 19:13 | -24.06008 | -47.98941 | 41080 ft | 527 kts | 26° |
| 2026-04-21 19:14 | -23.99554 | -47.95155 | 41080 ft | 526 kts | 26° |
| 2026-04-21 19:14 | -23.93094 | -47.91364 | 41074 ft | 526 kts | 26° |
| 2026-04-21 19:15 | -23.86650 | -47.87589 | 41079 ft | 526 kts | 26° |
| 2026-04-21 19:15 | -23.80212 | -47.83822 | 40912 ft | 524 kts | 26° |
| 2026-04-21 19:15 | -23.77030 | -47.81843 | 40493 ft | 528 kts | 35° |
| 2026-04-21 19:16 | -23.74190 | -47.79284 | 40130 ft | 530 kts | 44° |
| 2026-04-21 19:16 | -23.71519 | -47.76472 | 39674 ft | 535 kts | 44° |
| 2026-04-21 19:16 | -23.68847 | -47.73636 | 39315 ft | 538 kts | 44° |
| 2026-04-21 19:16 | -23.66151 | -47.70791 | 38948 ft | 540 kts | 44° |
| 2026-04-21 19:17 | -23.60729 | -47.65109 | 38043 ft | 534 kts | 44° |
| 2026-04-21 19:17 | -23.58939 | -47.63225 | 37406 ft | 544 kts | 44° |
| 2026-04-21 19:17 | -23.58115 | -47.62356 | 37468 ft | 540 kts | 44° |
| 2026-04-21 19:18 | -23.52784 | -47.56754 | 37279 ft | 532 kts | 43° |
| 2026-04-21 19:18 | -23.50076 | -47.53920 | 36851 ft | 531 kts | 43° |
| 2026-04-21 19:18 | -23.47463 | -47.51180 | 36255 ft | 529 kts | 43° |
| 2026-04-21 19:19 | -23.44823 | -47.48409 | 35579 ft | 520 kts | 43° |
| 2026-04-21 19:19 | -23.42257 | -47.45721 | 34529 ft | 503 kts | 43° |
| 2026-04-21 19:19 | -23.39771 | -47.43121 | 33443 ft | 487 kts | 43° |
| 2026-04-21 19:19 | -23.37363 | -47.40603 | 32327 ft | 472 kts | 42° |
| 2026-04-21 19:20 | -23.35026 | -47.38157 | 31258 ft | 459 kts | 42° |
| 2026-04-21 19:20 | -23.32776 | -47.35804 | 30229 ft | 447 kts | 41° |
| 2026-04-21 19:20 | -23.30564 | -47.33494 | 29089 ft | 435 kts | 41° |
| 2026-04-21 19:20 | -23.28403 | -47.31239 | 27961 ft | 424 kts | 42° |
| 2026-04-21 19:21 | -23.26303 | -47.29047 | 26881 ft | 414 kts | 42° |
| 2026-04-21 19:21 | -23.24256 | -47.26910 | 25860 ft | 404 kts | 42° |
| 2026-04-21 19:21 | -23.22248 | -47.24816 | 24970 ft | 392 kts | 42° |
| 2026-04-21 19:21 | -23.20324 | -47.22810 | 24303 ft | 375 kts | 42° |
| 2026-04-21 19:22 | -23.18474 | -47.20882 | 23625 ft | 363 kts | 42° |
| 2026-04-21 19:22 | -23.16645 | -47.18979 | 22861 ft | 367 kts | 42° |
| 2026-04-21 19:22 | -23.14774 | -47.17032 | 22120 ft | 377 kts | 44° |
| 2026-04-21 19:22 | -23.13005 | -47.14896 | 21513 ft | 382 kts | 47° |
| 2026-04-21 19:23 | -23.11174 | -47.12778 | 20858 ft | 388 kts | 45° |
| 2026-04-21 19:23 | -23.09280 | -47.10636 | 20197 ft | 394 kts | 46° |
| 2026-04-21 19:23 | -23.07418 | -47.08435 | 19550 ft | 396 kts | 47° |
| 2026-04-21 19:23 | -23.05602 | -47.06253 | 19096 ft | 391 kts | 47° |
| 2026-04-21 19:24 | -23.03769 | -47.04091 | 18658 ft | 384 kts | 47° |
| 2026-04-21 19:24 | -23.01960 | -47.01982 | 18207 ft | 379 kts | 47° |
| 2026-04-21 19:24 | -23.00182 | -46.99896 | 17702 ft | 374 kts | 47° |
| 2026-04-21 19:24 | -22.98476 | -46.97809 | 17206 ft | 367 kts | 55° |
| 2026-04-21 19:25 | -22.97429 | -46.95336 | 16792 ft | 357 kts | 79° |
| 2026-04-21 19:25 | -22.97042 | -46.92709 | 16347 ft | 349 kts | 76° |
| 2026-04-21 19:25 | -22.96266 | -46.90245 | 16051 ft | 339 kts | 69° |
| 2026-04-21 19:25 | -22.95293 | -46.87987 | 16047 ft | 321 kts | 63° |
| 2026-04-21 19:26 | -22.94237 | -46.85928 | 16044 ft | 303 kts | 61° |
| 2026-04-21 19:26 | -22.93203 | -46.84008 | 16036 ft | 290 kts | 60° |
| 2026-04-21 19:26 | -22.92169 | -46.82114 | 16042 ft | 294 kts | 60° |
| 2026-04-21 19:26 | -22.91113 | -46.80186 | 16040 ft | 299 kts | 60° |
| 2026-04-21 19:27 | -22.90307 | -46.78127 | 16049 ft | 297 kts | 86° |
| 2026-04-21 19:27 | -22.90594 | -46.75976 | 16080 ft | 294 kts | 118° |
| 2026-04-21 19:27 | -22.91900 | -46.74321 | 16048 ft | 291 kts | 148° |
| 2026-04-21 19:27 | -22.93734 | -46.73332 | 15707 ft | 295 kts | 159° |
| 2026-04-21 19:28 | -22.95628 | -46.72508 | 15355 ft | 292 kts | 157° |
| 2026-04-21 19:28 | -22.97429 | -46.71512 | 14957 ft | 290 kts | 148° |
| 2026-04-21 19:28 | -22.99103 | -46.70282 | 14547 ft | 289 kts | 145° |
| 2026-04-21 19:28 | -23.00756 | -46.69034 | 14139 ft | 289 kts | 147° |
| 2026-04-21 19:29 | -23.02445 | -46.67856 | 13710 ft | 288 kts | 148° |
| 2026-04-21 19:29 | -23.04146 | -46.66693 | 13268 ft | 289 kts | 148° |
| 2026-04-21 19:29 | -23.05845 | -46.65506 | 12814 ft | 289 kts | 147° |
| 2026-04-21 19:29 | -23.07525 | -46.64320 | 12362 ft | 288 kts | 147° |
| 2026-04-21 19:30 | -23.09180 | -46.63158 | 11943 ft | 286 kts | 148° |
| 2026-04-21 19:30 | -23.10851 | -46.61989 | 11516 ft | 284 kts | 148° |
| 2026-04-21 19:30 | -23.12398 | -46.60901 | 11124 ft | 283 kts | 148° |
| 2026-04-21 19:30 | -23.14037 | -46.59755 | 10709 ft | 281 kts | 148° |
| 2026-04-21 19:31 | -23.15675 | -46.58605 | 10310 ft | 279 kts | 148° |
| 2026-04-21 19:31 | -23.17306 | -46.57460 | 9908 ft | 278 kts | 148° |
| 2026-04-21 19:31 | -23.18943 | -46.56354 | 9485 ft | 275 kts | 155° |
| 2026-04-21 19:31 | -23.20780 | -46.55896 | 9200 ft | 267 kts | 181° |
| 2026-04-21 19:32 | -23.22537 | -46.56261 | 9039 ft | 255 kts | 205° |
| 2026-04-21 19:32 | -23.24043 | -46.57239 | 8791 ft | 257 kts | 212° |
| 2026-04-21 19:32 | -23.25554 | -46.58304 | 8520 ft | 260 kts | 213° |
| 2026-04-21 19:32 | -23.27059 | -46.59384 | 8305 ft | 260 kts | 213° |
| 2026-04-21 19:33 | -23.28081 | -46.60112 | 8157 ft | 260 kts | 212° |
| 2026-04-21 19:33 | -23.30092 | -46.61538 | 7858 ft | 259 kts | 212° |
| 2026-04-21 19:33 | -23.31600 | -46.62608 | 7621 ft | 259 kts | 212° |
| 2026-04-21 19:33 | -23.33111 | -46.63681 | 7393 ft | 259 kts | 212° |
| 2026-04-21 19:34 | -23.34618 | -46.64752 | 7171 ft | 259 kts | 212° |
| 2026-04-21 19:34 | -23.36126 | -46.65826 | 6926 ft | 258 kts | 212° |
| 2026-04-21 19:34 | -23.37629 | -46.66895 | 6678 ft | 258 kts | 212° |
| 2026-04-21 19:34 | -23.39128 | -46.67960 | 6438 ft | 257 kts | 213° |
| 2026-04-21 19:35 | -23.40661 | -46.68904 | 6189 ft | 253 kts | 198° |
| 2026-04-21 19:35 | -23.43841 | -46.68315 | 5688 ft | 229 kts | 142° |
| 2026-04-21 19:35 | -23.44867 | -46.67044 | 5458 ft | 221 kts | 124° |
| 2026-04-21 19:36 | -23.45717 | -46.65687 | 5210 ft | 215 kts | 124° |
| 2026-04-21 19:36 | -23.46550 | -46.64347 | 4941 ft | 211 kts | 124° |
| 2026-04-21 19:36 | -23.47125 | -46.62910 | 4646 ft | 212 kts | 95° |
| 2026-04-21 19:36 | -23.46866 | -46.61155 | 4699 ft | 250 kts | 77° |
| 2026-04-21 19:37 | -23.46429 | -46.59468 | 4529 ft | 217 kts | 75° |
| 2026-04-21 19:37 | -23.46024 | -46.57991 | 4245 ft | 188 kts | 75° |
| 2026-04-21 19:37 | -23.45675 | -46.56700 | 4035 ft | 173 kts | 75° |
| 2026-04-21 19:37 | -23.45344 | -46.55476 | 3825 ft | 166 kts | 76° |
| 2026-04-21 19:38 | -23.45028 | -46.54284 | 3590 ft | 163 kts | 76° |
| 2026-04-21 19:38 | -23.44708 | -46.53100 | 3414 ft | 164 kts | 77° |
| 2026-04-21 19:38 | -23.44496 | -46.52314 | 3263 ft | 162 kts | 76° |
| 2026-04-21 19:38 | -23.44080 | -46.50754 | 2967 ft | 165 kts | 76° |
| 2026-04-21 19:39 | -23.43750 | -46.49539 | 2748 ft | 167 kts | 76° |
| 2026-04-21 19:39 | -23.43391 | -46.48243 | 3247 ft | 186 kts | 75° |
| 2026-04-21 19:39 | -23.43247 | -46.46902 | 3932 ft | 179 kts | 107° |
| 2026-04-21 19:39 | -23.43832 | -46.45742 | 5181 ft | 174 kts | 123° |
| 2026-04-21 19:40 | -23.44599 | -46.44585 | 5866 ft | 212 kts | 127° |
| 2026-04-21 19:40 | -23.45582 | -46.43191 | 5999 ft | 246 kts | 127° |
| 2026-04-21 19:40 | -23.46624 | -46.41708 | 5998 ft | 248 kts | 127° |
| 2026-04-21 19:40 | -23.47642 | -46.40169 | 5995 ft | 251 kts | 124° |
| 2026-04-21 19:41 | -23.48637 | -46.38587 | 5998 ft | 252 kts | 126° |
| 2026-04-21 19:41 | -23.49977 | -46.37409 | 6002 ft | 251 kts | 159° |
| 2026-04-21 19:41 | -23.51592 | -46.36688 | 5965 ft | 253 kts | 142° |
| 2026-04-21 19:41 | -23.52542 | -46.35151 | 6094 ft | 254 kts | 103° |
| 2026-04-21 19:42 | -23.52444 | -46.33231 | 6127 ft | 260 kts | 65° |
| 2026-04-21 19:42 | -23.51295 | -46.31744 | 6190 ft | 263 kts | 29° |
| 2026-04-21 19:42 | -23.49542 | -46.31303 | 6360 ft | 262 kts | 353° |
| 2026-04-21 19:42 | -23.47777 | -46.31768 | 6558 ft | 262 kts | 341° |
| 2026-04-21 19:43 | -23.46058 | -46.32443 | 6755 ft | 263 kts | 339° |
| 2026-04-21 19:43 | -23.44344 | -46.33159 | 6941 ft | 265 kts | 338° |
| 2026-04-21 19:43 | -23.42625 | -46.33888 | 7118 ft | 266 kts | 338° |
| 2026-04-21 19:43 | -23.40895 | -46.34624 | 7278 ft | 268 kts | 338° |
| 2026-04-21 19:44 | -23.39148 | -46.35366 | 7446 ft | 270 kts | 338° |
| 2026-04-21 19:44 | -23.37409 | -46.36106 | 7273 ft | 269 kts | 338° |
| 2026-04-21 19:44 | -23.35662 | -46.36848 | 7011 ft | 268 kts | 338° |
| 2026-04-21 19:44 | -23.33934 | -46.37584 | 6792 ft | 266 kts | 338° |
| 2026-04-21 19:45 | -23.32378 | -46.38644 | 6494 ft | 264 kts | 315° |
| 2026-04-21 19:45 | -23.31156 | -46.40136 | 6181 ft | 265 kts | 309° |
| 2026-04-21 19:45 | -23.30002 | -46.41696 | 6001 ft | 262 kts | 308° |
| 2026-04-21 19:45 | -23.28863 | -46.43267 | 6001 ft | 267 kts | 308° |
| 2026-04-21 19:46 | -23.27727 | -46.44856 | 5992 ft | 263 kts | 305° |
| 2026-04-21 19:46 | -23.27164 | -46.46722 | 6001 ft | 267 kts | 268° |
| 2026-04-21 19:46 | -23.27738 | -46.48613 | 6003 ft | 267 kts | 232° |
| 2026-04-21 19:46 | -23.29017 | -46.50043 | 6005 ft | 266 kts | 222° |
| 2026-04-21 19:47 | -23.30355 | -46.51422 | 6006 ft | 261 kts | 226° |
| 2026-04-21 19:47 | -23.31494 | -46.52975 | 6009 ft | 265 kts | 235° |
| 2026-04-21 19:47 | -23.32509 | -46.54661 | 6004 ft | 266 kts | 236° |
| 2026-04-21 19:47 | -23.33542 | -46.56334 | 6004 ft | 267 kts | 234° |
| 2026-04-21 19:48 | -23.34615 | -46.57978 | 5999 ft | 267 kts | 234° |
| 2026-04-21 19:48 | -23.35688 | -46.59619 | 6005 ft | 266 kts | 234° |
| 2026-04-21 19:48 | -23.36753 | -46.61272 | 6000 ft | 267 kts | 234° |
| 2026-04-21 19:48 | -23.37818 | -46.62931 | 6004 ft | 267 kts | 234° |
| 2026-04-21 19:49 | -23.38882 | -46.64582 | 6004 ft | 267 kts | 234° |
| 2026-04-21 19:49 | -23.39949 | -46.66234 | 6003 ft | 267 kts | 234° |
| 2026-04-21 19:49 | -23.41248 | -46.67648 | 5927 ft | 268 kts | 206° |
| 2026-04-21 19:49 | -23.43004 | -46.68006 | 5841 ft | 259 kts | 171° |
| 2026-04-21 19:50 | -23.44143 | -46.67603 | 5700 ft | 260 kts | 149° |
| 2026-04-21 19:50 | -23.45748 | -46.65702 | 5352 ft | 257 kts | 124° |
| 2026-04-21 19:50 | -23.46708 | -46.64070 | 5082 ft | 254 kts | 116° |
| 2026-04-21 19:50 | -23.47034 | -46.62230 | 4809 ft | 254 kts | 86° |
| 2026-04-21 19:51 | -23.46669 | -46.60341 | 4553 ft | 252 kts | 75° |
| 2026-04-21 19:51 | -23.46168 | -46.58534 | 4340 ft | 245 kts | 75° |
| 2026-04-21 19:51 | -23.45711 | -46.56840 | 4085 ft | 225 kts | 76° |
| 2026-04-21 19:51 | -23.45300 | -46.55301 | 3803 ft | 197 kts | 76° |
| 2026-04-21 19:52 | -23.44942 | -46.53979 | 3550 ft | 173 kts | 76° |
| 2026-04-21 19:52 | -23.44619 | -46.52760 | 3336 ft | 162 kts | 76° |
| 2026-04-21 19:52 | -23.44306 | -46.51594 | 3125 ft | 162 kts | 77° |
| 2026-04-21 19:52 | -23.43985 | -46.50399 | 2898 ft | 166 kts | 76° |
| 2026-04-21 19:53 | -23.43664 | -46.49201 | 2677 ft | 163 kts | 76° |
| 2026-04-21 19:53 | -23.43346 | -46.48016 | 2476 ft | 160 kts | 76° |
| 2026-04-21 19:53 | -23.43077 | -46.47035 | 2472 ft | 97 kts | 75° |
| 2026-04-21 19:53 | -23.42957 | -46.46583 | 2474 ft | 48 kts | 73° |
| 2026-04-21 19:54 | -23.42866 | -46.46259 | 2469 ft | 32 kts | 69° |
| 2026-04-21 19:54 | -23.42785 | -46.46198 | 2474 ft | 9 kts | 354° |
| 2026-04-21 19:54 | -23.42721 | -46.46211 | 2475 ft | 10 kts | 345° |
| 2026-04-21 19:54 | -23.42649 | -46.46234 | 2472 ft | 11 kts | 340° |
| 2026-04-21 19:55 | -23.42624 | -46.46268 | 2473 ft | 5 kts | 283° |
| 2026-04-21 19:55 | -23.42632 | -46.46341 | 2470 ft | 17 kts | 259° |
| 2026-04-21 19:55 | -23.42693 | -46.46563 | 2467 ft | 40 kts | 252° |
| 2026-04-21 19:55 | -23.42771 | -46.46843 | 2470 ft | 37 kts | 258° |
| 2026-04-21 19:56 | -23.42797 | -46.47105 | 2475 ft | 34 kts | 296° |
| 2026-04-21 19:56 | -23.42732 | -46.47209 | 2471 ft | 16 kts | 284° |
| 2026-04-21 19:56 | -23.42742 | -46.47262 | 2474 ft | 0 kts | 249° |